Aviation Digital Data Service (ADDS)

Output produced by METARs form (1645 UTC 23 January 2019)
found at http://www.aviationweather.gov/metar/data/
 
METAR text: ENDU 231620Z 00000KT 9999 FEW040 M25/M27 Q1015 NOSIG RMK WIND 1100FT 09006KT WIND 2200FT 11013KT
Conditions at: ENDU (BARDUFOSS (CIV/M, NO) observed 1620 UTC 23 January 2019
Temperature: -25.0°C (-13°F)
Dewpoint: -27.0°C (-17°F) [RH = 83%]
Pressure (altimeter): 29.97 inches Hg (1015.0 mb)
Winds: calm
Visibility: 6 or more miles (10+ km)
Ceiling: at least 12,000 feet AGL
Clouds: few clouds at 4000 feet AGL
Weather: no significant weather observed at this time

METAR text: ENDU 231550Z 00000KT 9999 FEW040 M25/M27 Q1015 NOSIG RMK WIND 1100FT 07005KT WIND 2200FT 10014KT
Conditions at: ENDU (BARDUFOSS (CIV/M, NO) observed 1550 UTC 23 January 2019
Temperature: -25.0°C (-13°F)
Dewpoint: -27.0°C (-17°F) [RH = 83%]
Pressure (altimeter): 29.97 inches Hg (1015.0 mb)
Winds: calm
Visibility: 6 or more miles (10+ km)
Ceiling: at least 12,000 feet AGL
Clouds: few clouds at 4000 feet AGL
Weather: no significant weather observed at this time

METAR text: ENDU 231520Z 00000KT 9999 FEW040 M23/M26 Q1015 NOSIG RMK WIND 1100FT 06006KT WIND 2200FT 10015KT
Conditions at: ENDU (BARDUFOSS (CIV/M, NO) observed 1520 UTC 23 January 2019
Temperature: -23.0°C (-9°F)
Dewpoint: -26.0°C (-15°F) [RH = 76%]
Pressure (altimeter): 29.97 inches Hg (1015.0 mb)
Winds: calm
Visibility: 6 or more miles (10+ km)
Ceiling: at least 12,000 feet AGL
Clouds: few clouds at 4000 feet AGL
Weather: no significant weather observed at this time

METAR text: ENDU 231450Z 00000KT 9999 FEW040 M25/M27 Q1014 NOSIG RMK WIND 1100FT 06008KT WIND 2200FT 10015KT
Conditions at: ENDU (BARDUFOSS (CIV/M, NO) observed 1450 UTC 23 January 2019
Temperature: -25.0°C (-13°F)
Dewpoint: -27.0°C (-17°F) [RH = 83%]
Pressure (altimeter): 29.94 inches Hg (1014.0 mb)
Winds: calm
Visibility: 6 or more miles (10+ km)
Ceiling: at least 12,000 feet AGL
Clouds: few clouds at 4000 feet AGL
Weather: no significant weather observed at this time

METAR text: ENDU 231420Z 00000KT 9999 FEW040 M24/M27 Q1014 NOSIG RMK WIND 1100FT 06007KT WIND 2200FT 09014KT
Conditions at: ENDU (BARDUFOSS (CIV/M, NO) observed 1420 UTC 23 January 2019
Temperature: -24.0°C (-11°F)
Dewpoint: -27.0°C (-17°F) [RH = 76%]
Pressure (altimeter): 29.94 inches Hg (1014.0 mb)
Winds: calm
Visibility: 6 or more miles (10+ km)
Ceiling: at least 12,000 feet AGL
Clouds: few clouds at 4000 feet AGL
Weather: no significant weather observed at this time

METAR text: ENDU 231350Z 00000KT 9999 FEW050 M25/M27 Q1014 NOSIG RMK WIND 1100FT 06005KT WIND 2200FT 10016KT
Conditions at: ENDU (BARDUFOSS (CIV/M, NO) observed 1350 UTC 23 January 2019
Temperature: -25.0°C (-13°F)
Dewpoint: -27.0°C (-17°F) [RH = 83%]
Pressure (altimeter): 29.94 inches Hg (1014.0 mb)
Winds: calm
Visibility: 6 or more miles (10+ km)
Ceiling: at least 12,000 feet AGL
Clouds: few clouds at 5000 feet AGL
Weather: no significant weather observed at this time

METAR text: ENDU 231320Z 00000KT CAVOK M25/M27 Q1013 NOSIG RMK WIND 1100FT 08007KT WIND 2200FT 11017KT
Conditions at: ENDU (BARDUFOSS (CIV/M, NO) observed 1320 UTC 23 January 2019
Temperature: -25.0°C (-13°F)
Dewpoint: -27.0°C (-17°F) [RH = 83%]
Pressure (altimeter): 29.91 inches Hg (1013.0 mb)
Winds: calm
Visibility: 6 or more miles (10+ km)
Ceiling: ceiling and visibility are OK
Clouds: unknown
Weather: no significant weather observed at this time

METAR text: ENDU 231250Z 00000KT CAVOK M24/M27 Q1013 NOSIG RMK WIND 1100FT 05005KT WIND 2200FT 11016KT
Conditions at: ENDU (BARDUFOSS (CIV/M, NO) observed 1250 UTC 23 January 2019
Temperature: -24.0°C (-11°F)
Dewpoint: -27.0°C (-17°F) [RH = 76%]
Pressure (altimeter): 29.91 inches Hg (1013.0 mb)
Winds: calm
Visibility: 6 or more miles (10+ km)
Ceiling: ceiling and visibility are OK
Clouds: unknown
Weather: no significant weather observed at this time

METAR text: ENDU 231220Z 00000KT CAVOK M25/M27 Q1013 NOSIG RMK WIND 1100FT 04005KT WIND 2200FT 11012KT
Conditions at: ENDU (BARDUFOSS (CIV/M, NO) observed 1220 UTC 23 January 2019
Temperature: -25.0°C (-13°F)
Dewpoint: -27.0°C (-17°F) [RH = 83%]
Pressure (altimeter): 29.91 inches Hg (1013.0 mb)
Winds: calm
Visibility: 6 or more miles (10+ km)
Ceiling: ceiling and visibility are OK
Clouds: unknown
Weather: no significant weather observed at this time

METAR text: ENDU 231150Z 00000KT 9999 FEW050 M25/M27 Q1013 NOSIG RMK WIND 1100FT 03004KT WIND 2200FT 12015KT
Conditions at: ENDU (BARDUFOSS (CIV/M, NO) observed 1150 UTC 23 January 2019
Temperature: -25.0°C (-13°F)
Dewpoint: -27.0°C (-17°F) [RH = 83%]
Pressure (altimeter): 29.91 inches Hg (1013.0 mb)
Winds: calm
Visibility: 6 or more miles (10+ km)
Ceiling: at least 12,000 feet AGL
Clouds: few clouds at 5000 feet AGL
Weather: no significant weather observed at this time

METAR text: ENDU 231120Z 00000KT 9999 FEW045 M25/M28 Q1013 NOSIG RMK WIND 1100FT 09008KT WIND 2200FT 12018KT
Conditions at: ENDU (BARDUFOSS (CIV/M, NO) observed 1120 UTC 23 January 2019
Temperature: -25.0°C (-13°F)
Dewpoint: -28.0°C (-18°F) [RH = 76%]
Pressure (altimeter): 29.91 inches Hg (1013.0 mb)
Winds: calm
Visibility: 6 or more miles (10+ km)
Ceiling: at least 12,000 feet AGL
Clouds: few clouds at 4500 feet AGL
Weather: no significant weather observed at this time

METAR text: ENDU 231050Z 00000KT 9999 FEW045 M26/M29 Q1012 NOSIG RMK WIND 1100FT 07006KT WIND 2200FT 11020KT
Conditions at: ENDU (BARDUFOSS (CIV/M, NO) observed 1050 UTC 23 January 2019
Temperature: -26.0°C (-15°F)
Dewpoint: -29.0°C (-20°F) [RH = 76%]
Pressure (altimeter): 29.88 inches Hg (1012.0 mb)
Winds: calm
Visibility: 6 or more miles (10+ km)
Ceiling: at least 12,000 feet AGL
Clouds: few clouds at 4500 feet AGL
Weather: no significant weather observed at this time

METAR text: ENDU 231020Z 00000KT 9999 FEW045 M26/M29 Q1012 NOSIG RMK WIND 1100FT 09009KT WIND 2200FT 12018KT
Conditions at: ENDU (BARDUFOSS (CIV/M, NO) observed 1020 UTC 23 January 2019
Temperature: -26.0°C (-15°F)
Dewpoint: -29.0°C (-20°F) [RH = 76%]
Pressure (altimeter): 29.88 inches Hg (1012.0 mb)
Winds: calm
Visibility: 6 or more miles (10+ km)
Ceiling: at least 12,000 feet AGL
Clouds: few clouds at 4500 feet AGL
Weather: no significant weather observed at this time

METAR text: ENDU 230950Z 00000KT 9999 FEW045 M27/M29 Q1011 NOSIG RMK WIND 1100FT 09009KT WIND 2200FT 10014KT
Conditions at: ENDU (BARDUFOSS (CIV/M, NO) observed 0950 UTC 23 January 2019
Temperature: -27.0°C (-17°F)
Dewpoint: -29.0°C (-20°F) [RH = 83%]
Pressure (altimeter): 29.85 inches Hg (1011.0 mb)
Winds: calm
Visibility: 6 or more miles (10+ km)
Ceiling: at least 12,000 feet AGL
Clouds: few clouds at 4500 feet AGL
Weather: no significant weather observed at this time

METAR text: ENDU 230920Z 00000KT 9999 FEW050 M26/M28 Q1011 NOSIG RMK WIND 1100FT 10009KT WIND 2200FT 10014KT
Conditions at: ENDU (BARDUFOSS (CIV/M, NO) observed 0920 UTC 23 January 2019
Temperature: -26.0°C (-15°F)
Dewpoint: -28.0°C (-18°F) [RH = 83%]
Pressure (altimeter): 29.85 inches Hg (1011.0 mb)
Winds: calm
Visibility: 6 or more miles (10+ km)
Ceiling: at least 12,000 feet AGL
Clouds: few clouds at 5000 feet AGL
Weather: no significant weather observed at this time

METAR text: ENDU 230850Z 00000KT CAVOK M26/M28 Q1011 NOSIG RMK WIND 1100FT 12007KT WIND 2200FT 12012KT
Conditions at: ENDU (BARDUFOSS (CIV/M, NO) observed 0850 UTC 23 January 2019
Temperature: -26.0°C (-15°F)
Dewpoint: -28.0°C (-18°F) [RH = 83%]
Pressure (altimeter): 29.85 inches Hg (1011.0 mb)
Winds: calm
Visibility: 6 or more miles (10+ km)
Ceiling: ceiling and visibility are OK
Clouds: unknown
Weather: no significant weather observed at this time

METAR text: ENDU 230820Z 00000KT 9999 FEW060 M26/M28 Q1011 NOSIG RMK WIND 1100FT 10006KT WIND 2200FT 12015KT
Conditions at: ENDU (BARDUFOSS (CIV/M, NO) observed 0820 UTC 23 January 2019
Temperature: -26.0°C (-15°F)
Dewpoint: -28.0°C (-18°F) [RH = 83%]
Pressure (altimeter): 29.85 inches Hg (1011.0 mb)
Winds: calm
Visibility: 6 or more miles (10+ km)
Ceiling: at least 12,000 feet AGL
Clouds: few clouds at 6000 feet AGL
Weather: no significant weather observed at this time

METAR text: ENDU 230750Z 00000KT CAVOK M26/M29 Q1010 NOSIG RMK WIND 1100FT 07006KT WIND 2200FT 11013KT
Conditions at: ENDU (BARDUFOSS (CIV/M, NO) observed 0750 UTC 23 January 2019
Temperature: -26.0°C (-15°F)
Dewpoint: -29.0°C (-20°F) [RH = 76%]
Pressure (altimeter): 29.82 inches Hg (1010.0 mb)
Winds: calm
Visibility: 6 or more miles (10+ km)
Ceiling: ceiling and visibility are OK
Clouds: unknown
Weather: no significant weather observed at this time

METAR text: ENDU 230720Z 00000KT CAVOK M25/M27 Q1010 NOSIG RMK WIND 1100FT 08009KT WIND 2200FT 12015KT
Conditions at: ENDU (BARDUFOSS (CIV/M, NO) observed 0720 UTC 23 January 2019
Temperature: -25.0°C (-13°F)
Dewpoint: -27.0°C (-17°F) [RH = 83%]
Pressure (altimeter): 29.82 inches Hg (1010.0 mb)
Winds: calm
Visibility: 6 or more miles (10+ km)
Ceiling: ceiling and visibility are OK
Clouds: unknown
Weather: no significant weather observed at this time

METAR text: ENDU 230650Z 00000KT 9999 FEW060 M26/M29 Q1010 NOSIG RMK WIND 1100FT 10007KT WIND 2200FT 11013KT
Conditions at: ENDU (BARDUFOSS (CIV/M, NO) observed 0650 UTC 23 January 2019
Temperature: -26.0°C (-15°F)
Dewpoint: -29.0°C (-20°F) [RH = 76%]
Pressure (altimeter): 29.82 inches Hg (1010.0 mb)
Winds: calm
Visibility: 6 or more miles (10+ km)
Ceiling: at least 12,000 feet AGL
Clouds: few clouds at 6000 feet AGL
Weather: no significant weather observed at this time

METAR text: ENDU 230620Z 00000KT CAVOK M25/M27 Q1009 NOSIG RMK WIND 1100FT 09008KT WIND 2200FT 10013KT
Conditions at: ENDU (BARDUFOSS (CIV/M, NO) observed 0620 UTC 23 January 2019
Temperature: -25.0°C (-13°F)
Dewpoint: -27.0°C (-17°F) [RH = 83%]
Pressure (altimeter): 29.79 inches Hg (1009.0 mb)
Winds: calm
Visibility: 6 or more miles (10+ km)
Ceiling: ceiling and visibility are OK
Clouds: unknown
Weather: no significant weather observed at this time

METAR text: ENDU 230550Z 00000KT CAVOK M25/M27 Q1009 NOSIG RMK WIND 1100FT 07006KT WIND 2200FT 11013KT
Conditions at: ENDU (BARDUFOSS (CIV/M, NO) observed 0550 UTC 23 January 2019
Temperature: -25.0°C (-13°F)
Dewpoint: -27.0°C (-17°F) [RH = 83%]
Pressure (altimeter): 29.79 inches Hg (1009.0 mb)
Winds: calm
Visibility: 6 or more miles (10+ km)
Ceiling: ceiling and visibility are OK
Clouds: unknown
Weather: no significant weather observed at this time

METAR text: ENDU 230520Z 00000KT CAVOK M25/M28 Q1009 RMK WIND 1100FT 09008KT WIND 2200FT 12013KT
Conditions at: ENDU (BARDUFOSS (CIV/M, NO) observed 0520 UTC 23 January 2019
Temperature: -25.0°C (-13°F)
Dewpoint: -28.0°C (-18°F) [RH = 76%]
Pressure (altimeter): 29.79 inches Hg (1009.0 mb)
Winds: calm
Visibility: 6 or more miles (10+ km)
Ceiling: ceiling and visibility are OK
Clouds: unknown
Weather: no significant weather observed at this time

METAR text: ENDU 230450Z 00000KT CAVOK M24/M26 Q1009 RMK WIND 1100FT 10008KT WIND 2200FT 12015KT
Conditions at: ENDU (BARDUFOSS (CIV/M, NO) observed 0450 UTC 23 January 2019
Temperature: -24.0°C (-11°F)
Dewpoint: -26.0°C (-15°F) [RH = 84%]
Pressure (altimeter): 29.79 inches Hg (1009.0 mb)
Winds: calm
Visibility: 6 or more miles (10+ km)
Ceiling: ceiling and visibility are OK
Clouds: unknown
Weather: no significant weather observed at this time

METAR text: ENDU 230420Z 00000KT CAVOK M24/M26 Q1008 RMK WIND 1100FT 07004KT WIND 2200FT 08009KT
Conditions at: ENDU (BARDUFOSS (CIV/M, NO) observed 0420 UTC 23 January 2019
Temperature: -24.0°C (-11°F)
Dewpoint: -26.0°C (-15°F) [RH = 84%]
Pressure (altimeter): 29.76 inches Hg (1008.0 mb)
Winds: calm
Visibility: 6 or more miles (10+ km)
Ceiling: ceiling and visibility are OK
Clouds: unknown
Weather: no significant weather observed at this time

METAR text: ENDU 230350Z AUTO 00000KT 9999 NCD M24/M27 Q1008 RMK WIND 1100FT 06005KT WIND 2200FT 08012KT
Conditions at: ENDU (BARDUFOSS (CIV/M, NO) observed 0350 UTC 23 January 2019
Temperature: -24.0°C (-11°F)
Dewpoint: -27.0°C (-17°F) [RH = 76%]
Pressure (altimeter): 29.76 inches Hg (1008.0 mb)
Winds: calm
Visibility: 6 or more miles (10+ km)
Ceiling: at least 12,000 feet AGL
Clouds: sky clear below 12,000 feet AGL
Weather: no significant weather observed at this time

METAR text: ENDU 230320Z AUTO 00000KT 9999 NCD M24/M26 Q1008 RMK WIND 1100FT 06004KT WIND 2200FT 08010KT
Conditions at: ENDU (BARDUFOSS (CIV/M, NO) observed 0320 UTC 23 January 2019
Temperature: -24.0°C (-11°F)
Dewpoint: -26.0°C (-15°F) [RH = 84%]
Pressure (altimeter): 29.76 inches Hg (1008.0 mb)
Winds: calm
Visibility: 6 or more miles (10+ km)
Ceiling: at least 12,000 feet AGL
Clouds: sky clear below 12,000 feet AGL
Weather: no significant weather observed at this time

METAR text: ENDU 230250Z AUTO 00000KT 9999 NCD M23/M25 Q1008 RMK WIND 1100FT 10005KT WIND 2200FT 09011KT
Conditions at: ENDU (BARDUFOSS (CIV/M, NO) observed 0250 UTC 23 January 2019
Temperature: -23.0°C (-9°F)
Dewpoint: -25.0°C (-13°F) [RH = 84%]
Pressure (altimeter): 29.76 inches Hg (1008.0 mb)
Winds: calm
Visibility: 6 or more miles (10+ km)
Ceiling: at least 12,000 feet AGL
Clouds: sky clear below 12,000 feet AGL
Weather: no significant weather observed at this time

METAR text: ENDU 230220Z AUTO 00000KT 9999 NCD M22/M24 Q1008 RMK WIND 1100FT 07005KT WIND 2200FT 08010KT
Conditions at: ENDU (BARDUFOSS (CIV/M, NO) observed 0220 UTC 23 January 2019
Temperature: -22.0°C (-8°F)
Dewpoint: -24.0°C (-11°F) [RH = 84%]
Pressure (altimeter): 29.76 inches Hg (1008.0 mb)
Winds: calm
Visibility: 6 or more miles (10+ km)
Ceiling: at least 12,000 feet AGL
Clouds: sky clear below 12,000 feet AGL
Weather: no significant weather observed at this time

METAR text: ENDU 230150Z AUTO 00000KT 9999 NCD M22/M23 Q1008 RMK WIND 1100FT 09006KT WIND 2200FT 09010KT
Conditions at: ENDU (BARDUFOSS (CIV/M, NO) observed 0150 UTC 23 January 2019
Temperature: -22.0°C (-8°F)
Dewpoint: -23.0°C (-9°F) [RH = 92%]
Pressure (altimeter): 29.76 inches Hg (1008.0 mb)
Winds: calm
Visibility: 6 or more miles (10+ km)
Ceiling: at least 12,000 feet AGL
Clouds: sky clear below 12,000 feet AGL
Weather: no significant weather observed at this time

METAR text: ENDU 230120Z AUTO 00000KT 9999 NCD M23/M25 Q1008 RMK WIND 1100FT 07006KT WIND 2200FT 11012KT
Conditions at: ENDU (BARDUFOSS (CIV/M, NO) observed 0120 UTC 23 January 2019
Temperature: -23.0°C (-9°F)
Dewpoint: -25.0°C (-13°F) [RH = 84%]
Pressure (altimeter): 29.76 inches Hg (1008.0 mb)
Winds: calm
Visibility: 6 or more miles (10+ km)
Ceiling: at least 12,000 feet AGL
Clouds: sky clear below 12,000 feet AGL
Weather: no significant weather observed at this time

METAR text: ENDU 230050Z AUTO 00000KT 2000 -SN NCD M22/M24 Q1007 RMK WIND 1100FT 05007KT WIND 2200FT 10009KT
Conditions at: ENDU (BARDUFOSS (CIV/M, NO) observed 0050 UTC 23 January 2019
Temperature: -22.0°C (-8°F)
Dewpoint: -24.0°C (-11°F) [RH = 84%]
Pressure (altimeter): 29.73 inches Hg (1007.0 mb)
Winds: calm
Visibility: 1.24 miles (2.00 km)
Ceiling: at least 12,000 feet AGL
Clouds: sky clear below 12,000 feet AGL
Weather: -SN  (light snow)

METAR text: ENDU 230020Z AUTO 00000KT 9999 BR NCD M23/M25 Q1007 RMK WIND 1100FT 06005KT WIND 2200FT 09012KT
Conditions at: ENDU (BARDUFOSS (CIV/M, NO) observed 0020 UTC 23 January 2019
Temperature: -23.0°C (-9°F)
Dewpoint: -25.0°C (-13°F) [RH = 84%]
Pressure (altimeter): 29.73 inches Hg (1007.0 mb)
Winds: calm
Visibility: 6 or more miles (10+ km)
Ceiling: at least 12,000 feet AGL
Clouds: sky clear below 12,000 feet AGL
Weather: BR  (mist)

METAR text: ENDU 222350Z AUTO 00000KT 9999 -SN NCD M21/M23 Q1007 RMK WIND 1100FT 06006KT WIND 2200FT 11009KT
Conditions at: ENDU (BARDUFOSS (CIV/M, NO) observed 2350 UTC 22 January 2019
Temperature: -21.0°C (-6°F)
Dewpoint: -23.0°C (-9°F) [RH = 84%]
Pressure (altimeter): 29.73 inches Hg (1007.0 mb)
Winds: calm
Visibility: 6 or more miles (10+ km)
Ceiling: at least 12,000 feet AGL
Clouds: sky clear below 12,000 feet AGL
Weather: -SN  (light snow)

METAR text: ENDU 222320Z AUTO 00000KT 1200 R10/P2000N R28/P2000N -SN NCD M22/M24 Q1007 RMK WIND 1100FT 07006KT WIND 2200FT 09013KT
Conditions at: ENDU (BARDUFOSS (CIV/M, NO) observed 2320 UTC 22 January 2019
Temperature: -22.0°C (-8°F)
Dewpoint: -24.0°C (-11°F) [RH = 84%]
Pressure (altimeter): 29.73 inches Hg (1007.0 mb)
Winds: calm
Visibility: 0.75 miles (1.21 km)
Ceiling: at least 12,000 feet AGL
Clouds: sky clear below 12,000 feet AGL
Weather: -SN  (light snow)

METAR text: ENDU 222250Z AUTO 00000KT 3700 -SN NCD M21/M23 Q1007 RMK WIND 1100FT 06004KT WIND 2200FT 09014KT
Conditions at: ENDU (BARDUFOSS (CIV/M, NO) observed 2250 UTC 22 January 2019
Temperature: -21.0°C (-6°F)
Dewpoint: -23.0°C (-9°F) [RH = 84%]
Pressure (altimeter): 29.73 inches Hg (1007.0 mb)
Winds: calm
Visibility: 2.30 miles (3.70 km)
Ceiling: at least 12,000 feet AGL
Clouds: sky clear below 12,000 feet AGL
Weather: -SN  (light snow)

METAR text: ENDU 222220Z AUTO 00000KT 9999 NCD M20/M22 Q1007 RESN RMK WIND 1100FT 05004KT WIND 2200FT 09011KT
Conditions at: ENDU (BARDUFOSS (CIV/M, NO) observed 2220 UTC 22 January 2019
Temperature: -20.0°C (-4°F)
Dewpoint: -22.0°C (-8°F) [RH = 84%]
Pressure (altimeter): 29.73 inches Hg (1007.0 mb)
Winds: calm
Visibility: 6 or more miles (10+ km)
Ceiling: at least 12,000 feet AGL
Clouds: sky clear below 12,000 feet AGL
Weather: no significant weather observed at this time

METAR text: ENDU 222150Z 00000KT 9999 5000E VCFG FEW001 M19/M21 Q1007 RMK WIND 1100FT 06006KT WIND 2200FT 09011KT
Conditions at: ENDU (BARDUFOSS (CIV/M, NO) observed 2150 UTC 22 January 2019
Temperature: -19.0°C (-2°F)
Dewpoint: -21.0°C (-6°F) [RH = 84%]
Pressure (altimeter): 29.73 inches Hg (1007.0 mb)
Winds: calm
Visibility: 6 or more miles (10+ km)
Ceiling: at least 12,000 feet AGL
Clouds: few clouds at 100 feet AGL
Weather: VCFG  (fog in vicinity)

METAR text: ENDU 222120Z 00000KT 9999 4000E VCFG FEW001 M18/M20 Q1006 RMK WIND 1100FT 06006KT WIND 2200FT 09009KT
Conditions at: ENDU (BARDUFOSS (CIV/M, NO) observed 2120 UTC 22 January 2019
Temperature: -18.0°C (-0°F)
Dewpoint: -20.0°C (-4°F) [RH = 84%]
Pressure (altimeter): 29.70 inches Hg (1006.0 mb)
Winds: calm
Visibility: 6 or more miles (10+ km)
Ceiling: at least 12,000 feet AGL
Clouds: few clouds at 100 feet AGL
Weather: VCFG  (fog in vicinity)

METAR text: ENDU 222050Z VRB01KT 9999 VCFG FEW001 M17/M19 Q1006 RMK WIND 1100FT 06005KT WIND 2200FT 10009KT
Conditions at: ENDU (BARDUFOSS (CIV/M, NO) observed 2050 UTC 22 January 2019
Temperature: -17.0°C ( 1°F)
Dewpoint: -19.0°C (-2°F) [RH = 84%]
Pressure (altimeter): 29.70 inches Hg (1006.0 mb)
Winds: variable direction winds at 1 MPH (1 knots; 0.5 m/s)
Visibility: 6 or more miles (10+ km)
Ceiling: at least 12,000 feet AGL
Clouds: few clouds at 100 feet AGL
Weather: VCFG  (fog in vicinity)

METAR text: ENDU 222020Z 00000KT 9999 VCFG FEW001 M16/M18 Q1006 RMK WIND 1100FT 07005KT WIND 2200FT 10006KT
Conditions at: ENDU (BARDUFOSS (CIV/M, NO) observed 2020 UTC 22 January 2019
Temperature: -16.0°C ( 3°F)
Dewpoint: -18.0°C (-0°F) [RH = 85%]
Pressure (altimeter): 29.70 inches Hg (1006.0 mb)
Winds: calm
Visibility: 6 or more miles (10+ km)
Ceiling: at least 12,000 feet AGL
Clouds: few clouds at 100 feet AGL
Weather: VCFG  (fog in vicinity)

METAR text: ENDU 221950Z 00000KT 9999 3000E VCFG FEW001 M16/M17 Q1006 RMK WIND 1100FT 09005KT WIND 2200FT 11007KT
Conditions at: ENDU (BARDUFOSS (CIV/M, NO) observed 1950 UTC 22 January 2019
Temperature: -16.0°C ( 3°F)
Dewpoint: -17.0°C ( 1°F) [RH = 92%]
Pressure (altimeter): 29.70 inches Hg (1006.0 mb)
Winds: calm
Visibility: 6 or more miles (10+ km)
Ceiling: at least 12,000 feet AGL
Clouds: few clouds at 100 feet AGL
Weather: VCFG  (fog in vicinity)

METAR text: ENDU 221920Z 00000KT 9999 3500E VCFG FEW002 SCT035 M15/M17 Q1006 RMK WIND 1100FT 08005KT WIND 2200FT 09012KT
Conditions at: ENDU (BARDUFOSS (CIV/M, NO) observed 1920 UTC 22 January 2019
Temperature: -15.0°C ( 5°F)
Dewpoint: -17.0°C ( 1°F) [RH = 85%]
Pressure (altimeter): 29.70 inches Hg (1006.0 mb)
Winds: calm
Visibility: 6 or more miles (10+ km)
Ceiling: at least 12,000 feet AGL
Clouds: few clouds at 200 feet AGL
scattered clouds at 3500 feet AGL
Weather: VCFG  (fog in vicinity)

METAR text: ENDU 221850Z 00000KT 9999 VCFG FEW002 BKN035 M14/M16 Q1006 RMK WIND 1100FT 05004KT WIND 2200FT 10009KT
Conditions at: ENDU (BARDUFOSS (CIV/M, NO) observed 1850 UTC 22 January 2019
Temperature: -14.0°C ( 7°F)
Dewpoint: -16.0°C ( 3°F) [RH = 85%]
Pressure (altimeter): 29.70 inches Hg (1006.0 mb)
Winds: calm
Visibility: 6 or more miles (10+ km)
Ceiling: 3500 feet AGL
Clouds: few clouds at 200 feet AGL
broken clouds at 3500 feet AGL
Weather: VCFG  (fog in vicinity)

METAR text: ENDU 221820Z 00000KT 9999 VCFG FEW005 BKN034 M14/M15 Q1006 RMK WIND 1100FT 36003KT WIND 2200FT 09008KT
Conditions at: ENDU (BARDUFOSS (CIV/M, NO) observed 1820 UTC 22 January 2019
Temperature: -14.0°C ( 7°F)
Dewpoint: -15.0°C ( 5°F) [RH = 92%]
Pressure (altimeter): 29.70 inches Hg (1006.0 mb)
Winds: calm
Visibility: 6 or more miles (10+ km)
Ceiling: 3400 feet AGL
Clouds: few clouds at 500 feet AGL
broken clouds at 3400 feet AGL
Weather: VCFG  (fog in vicinity)

METAR text: ENDU 221750Z 00000KT 9999 FEW020 SCT045 M13/M14 Q1006 NOSIG RMK WIND 1100FT 00000KT WIND 2200FT 10008KT
Conditions at: ENDU (BARDUFOSS (CIV/M, NO) observed 1750 UTC 22 January 2019
Temperature: -13.0°C ( 9°F)
Dewpoint: -14.0°C ( 7°F) [RH = 92%]
Pressure (altimeter): 29.70 inches Hg (1006.0 mb)
Winds: calm
Visibility: 6 or more miles (10+ km)
Ceiling: at least 12,000 feet AGL
Clouds: few clouds at 2000 feet AGL
scattered clouds at 4500 feet AGL
Weather: no significant weather observed at this time

METAR text: ENDU 221720Z 00000KT 9999 FEW020 SCT040 M14/M15 Q1006 NOSIG RMK WIND 1100FT 01004KT WIND 2200FT 11007KT
Conditions at: ENDU (BARDUFOSS (CIV/M, NO) observed 1720 UTC 22 January 2019
Temperature: -14.0°C ( 7°F)
Dewpoint: -15.0°C ( 5°F) [RH = 92%]
Pressure (altimeter): 29.70 inches Hg (1006.0 mb)
Winds: calm
Visibility: 6 or more miles (10+ km)
Ceiling: at least 12,000 feet AGL
Clouds: few clouds at 2000 feet AGL
scattered clouds at 4000 feet AGL
Weather: no significant weather observed at this time

METAR text: ENDU 221650Z 00000KT 9999 FEW020 SCT040 M13/M14 Q1006 NOSIG RMK WIND 1100FT 34005KT WIND 2200FT 07004KT
Conditions at: ENDU (BARDUFOSS (CIV/M, NO) observed 1650 UTC 22 January 2019
Temperature: -13.0°C ( 9°F)
Dewpoint: -14.0°C ( 7°F) [RH = 92%]
Pressure (altimeter): 29.70 inches Hg (1006.0 mb)
Winds: calm
Visibility: 6 or more miles (10+ km)
Ceiling: at least 12,000 feet AGL
Clouds: few clouds at 2000 feet AGL
scattered clouds at 4000 feet AGL
Weather: no significant weather observed at this time

METAR text: ENDU 221620Z 00000KT 9999 FEW020 SCT035 M13/M14 Q1006 NOSIG RMK WIND 1100FT 36004KT WIND 2200FT VRB03KT
Conditions at: ENDU (BARDUFOSS (CIV/M, NO) observed 1620 UTC 22 January 2019
Temperature: -13.0°C ( 9°F)
Dewpoint: -14.0°C ( 7°F) [RH = 92%]
Pressure (altimeter): 29.70 inches Hg (1006.0 mb)
Winds: calm
Visibility: 6 or more miles (10+ km)
Ceiling: at least 12,000 feet AGL
Clouds: few clouds at 2000 feet AGL
scattered clouds at 3500 feet AGL
Weather: no significant weather observed at this time

METAR text: ENDU 221550Z 00000KT 9999 FEW020 SCT035 M13/M14 Q1005 NOSIG RMK WIND 1100FT 34004KT WIND 2200FT VRB03KT
Conditions at: ENDU (BARDUFOSS (CIV/M, NO) observed 1550 UTC 22 January 2019
Temperature: -13.0°C ( 9°F)
Dewpoint: -14.0°C ( 7°F) [RH = 92%]
Pressure (altimeter): 29.68 inches Hg (1005.0 mb)
Winds: calm
Visibility: 6 or more miles (10+ km)
Ceiling: at least 12,000 feet AGL
Clouds: few clouds at 2000 feet AGL
scattered clouds at 3500 feet AGL
Weather: no significant weather observed at this time

METAR text: ENDU 221520Z 00000KT 9999 FEW020 M13/M14 Q1005 NOSIG RMK WIND 1100FT 30005KT WIND 2200FT VRB06KT
Conditions at: ENDU (BARDUFOSS (CIV/M, NO) observed 1520 UTC 22 January 2019
Temperature: -13.0°C ( 9°F)
Dewpoint: -14.0°C ( 7°F) [RH = 92%]
Pressure (altimeter): 29.68 inches Hg (1005.0 mb)
Winds: calm
Visibility: 6 or more miles (10+ km)
Ceiling: at least 12,000 feet AGL
Clouds: few clouds at 2000 feet AGL
Weather: no significant weather observed at this time

METAR text: ENDU 221450Z 00000KT 9999 FEW018 SCT035 M10/M11 Q1005 NOSIG RMK WIND 1100FT 30004KT WIND 2200FT 36006KT
Conditions at: ENDU (BARDUFOSS (CIV/M, NO) observed 1450 UTC 22 January 2019
Temperature: -10.0°C (14°F)
Dewpoint: -11.0°C (12°F) [RH = 92%]
Pressure (altimeter): 29.68 inches Hg (1005.0 mb)
Winds: calm
Visibility: 6 or more miles (10+ km)
Ceiling: at least 12,000 feet AGL
Clouds: few clouds at 1800 feet AGL
scattered clouds at 3500 feet AGL
Weather: no significant weather observed at this time

METAR text: ENDU 221420Z 00000KT 9999 FEW018 SCT035 BKN060 M09/M10 Q1005 NOSIG RMK WIND 1100FT 32005KT WIND 2200FT 36008KT
Conditions at: ENDU (BARDUFOSS (CIV/M, NO) observed 1420 UTC 22 January 2019
Temperature: -9.0°C (16°F)
Dewpoint: -10.0°C (14°F) [RH = 92%]
Pressure (altimeter): 29.68 inches Hg (1005.0 mb)
Winds: calm
Visibility: 6 or more miles (10+ km)
Ceiling: 6000 feet AGL
Clouds: few clouds at 1800 feet AGL
scattered clouds at 3500 feet AGL
broken clouds at 6000 feet AGL
Weather: no significant weather observed at this time

METAR text: ENDU 221350Z 00000KT 9999 FEW018 SCT035 BKN060 M08/M09 Q1005 NOSIG RMK WIND 1100FT 33006KT WIND 2200FT 01009KT
Conditions at: ENDU (BARDUFOSS (CIV/M, NO) observed 1350 UTC 22 January 2019
Temperature: -8.0°C (18°F)
Dewpoint: -9.0°C (16°F) [RH = 92%]
Pressure (altimeter): 29.68 inches Hg (1005.0 mb)
Winds: calm
Visibility: 6 or more miles (10+ km)
Ceiling: 6000 feet AGL
Clouds: few clouds at 1800 feet AGL
scattered clouds at 3500 feet AGL
broken clouds at 6000 feet AGL
Weather: no significant weather observed at this time

METAR text: ENDU 221320Z 00000KT 9999 VCSH FEW010 SCT025 BKN045 M08/M09 Q1005 NOSIG RMK WIND 1100FT 33006KT WIND 2200FT 36010KT
Conditions at: ENDU (BARDUFOSS (CIV/M, NO) observed 1320 UTC 22 January 2019
Temperature: -8.0°C (18°F)
Dewpoint: -9.0°C (16°F) [RH = 92%]
Pressure (altimeter): 29.68 inches Hg (1005.0 mb)
Winds: calm
Visibility: 6 or more miles (10+ km)
Ceiling: 4500 feet AGL
Clouds: few clouds at 1000 feet AGL
scattered clouds at 2500 feet AGL
broken clouds at 4500 feet AGL
Weather: VCSH  (showers in vicinity)

METAR text: ENDU 221250Z 00000KT 9999 VCSH FEW018 BKN035 M07/M08 Q1005 NOSIG RMK WIND 1100FT 32007KT WIND 2200FT 01011KT
Conditions at: ENDU (BARDUFOSS (CIV/M, NO) observed 1250 UTC 22 January 2019
Temperature: -7.0°C (19°F)
Dewpoint: -8.0°C (18°F) [RH = 93%]
Pressure (altimeter): 29.68 inches Hg (1005.0 mb)
Winds: calm
Visibility: 6 or more miles (10+ km)
Ceiling: 3500 feet AGL
Clouds: few clouds at 1800 feet AGL
broken clouds at 3500 feet AGL
Weather: VCSH  (showers in vicinity)

METAR text: ENDU 221220Z 00000KT 6000 9999NW -SHSN FEW010 SCT020 BKN035 M07/M08 Q1005 TEMPO 4000 -SHSN VV014 RMK WIND 1100FT 32005KT WIND 2200FT 01013KT
Conditions at: ENDU (BARDUFOSS (CIV/M, NO) observed 1220 UTC 22 January 2019
Temperature: -7.0°C (19°F)
Dewpoint: -8.0°C (18°F) [RH = 93%]
Pressure (altimeter): 29.68 inches Hg (1005.0 mb)
Winds: calm
Visibility: 4 miles ( 6 km)
Ceiling: 3500 feet AGL
Clouds: few clouds at 1000 feet AGL
scattered clouds at 2000 feet AGL
broken clouds at 3500 feet AGL
Weather: -SHSN  (light snow showers)

METAR text: ENDU 221150Z 00000KT 9999 -SHSN FEW015 SCT025 BKN035 M07/M08 Q1005 TEMPO 4000 -SHSN VV014 RMK WIND 1100FT 33005KT WIND 2200FT 02013KT
Conditions at: ENDU (BARDUFOSS (CIV/M, NO) observed 1150 UTC 22 January 2019
Temperature: -7.0°C (19°F)
Dewpoint: -8.0°C (18°F) [RH = 93%]
Pressure (altimeter): 29.68 inches Hg (1005.0 mb)
Winds: calm
Visibility: 6 or more miles (10+ km)
Ceiling: 3500 feet AGL
Clouds: few clouds at 1500 feet AGL
scattered clouds at 2500 feet AGL
broken clouds at 3500 feet AGL
Weather: -SHSN  (light snow showers)

METAR text: ENDU 221120Z 00000KT 9000 5000NE -SHSN VV018 M07/M08 Q1005 TEMPO 4000 -SHSN VV014 RMK WIND 1100FT 31004KT WIND 2200FT 02011KT
Conditions at: ENDU (BARDUFOSS (CIV/M, NO) observed 1120 UTC 22 January 2019
Temperature: -7.0°C (19°F)
Dewpoint: -8.0°C (18°F) [RH = 93%]
Pressure (altimeter): 29.68 inches Hg (1005.0 mb)
Winds: calm
Visibility: 6 miles ( 9 km)
Ceiling: indefinite ceiling with vertical visibility of 1800 feet AGL
Clouds: obscured sky
Weather: -SHSN  (light snow showers)

METAR text: ENDU 221050Z 00000KT 9999 5000S VCSH SCT015 BKN035 M08/M09 Q1005 TEMPO 4000 -SHSN VV014 RMK WIND 1100FT 35004KT WIND 2200FT 01011KT
Conditions at: ENDU (BARDUFOSS (CIV/M, NO) observed 1050 UTC 22 January 2019
Temperature: -8.0°C (18°F)
Dewpoint: -9.0°C (16°F) [RH = 92%]
Pressure (altimeter): 29.68 inches Hg (1005.0 mb)
Winds: calm
Visibility: 6 or more miles (10+ km)
Ceiling: 3500 feet AGL
Clouds: scattered clouds at 1500 feet AGL
broken clouds at 3500 feet AGL
Weather: VCSH  (showers in vicinity)

METAR text: ENDU 221020Z 00000KT 2500 5000NW -SHSN VV014 M07/M08 Q1005 TEMPO 2000 SHSN VV010 RMK WIND 1100FT 34004KT WIND 2200FT 01013KT
Conditions at: ENDU (BARDUFOSS (CIV/M, NO) observed 1020 UTC 22 January 2019
Temperature: -7.0°C (19°F)
Dewpoint: -8.0°C (18°F) [RH = 93%]
Pressure (altimeter): 29.68 inches Hg (1005.0 mb)
Winds: calm
Visibility: 1.55 miles (2.49 km)
Ceiling: indefinite ceiling with vertical visibility of 1400 feet AGL
Clouds: obscured sky
Weather: -SHSN  (light snow showers)

METAR text: ENDU 220950Z 00000KT 1400 R10/P2000N R28/P2000N SHSN VV009 M06/M07 Q1005 TEMPO 2000 SHSN VV010 RMK WIND 1100FT 02005KT WIND 2200FT 02011KT
Conditions at: ENDU (BARDUFOSS (CIV/M, NO) observed 0950 UTC 22 January 2019
Temperature: -6.0°C (21°F)
Dewpoint: -7.0°C (19°F) [RH = 93%]
Pressure (altimeter): 29.68 inches Hg (1005.0 mb)
Winds: calm
Visibility: 0.87 miles (1.40 km)
Ceiling: indefinite ceiling with vertical visibility of 900 feet AGL
Clouds: obscured sky
Weather: SHSN  (snow showers)

METAR text: ENDU 220920Z 30001KT 1500 R10/P2000N R28/P2000N SHSN VV009 M05/M06 Q1005 TEMPO 0500 +SHSN VV004 RMK WIND 1100FT 05003KT WIND 2200FT 01012KT
Conditions at: ENDU (BARDUFOSS (CIV/M, NO) observed 0920 UTC 22 January 2019
Temperature: -5.0°C (23°F)
Dewpoint: -6.0°C (21°F) [RH = 93%]
Pressure (altimeter): 29.68 inches Hg (1005.0 mb)
Winds: from the WNW (300 degrees) at 1 MPH (1 knots; 0.5 m/s)
Visibility: 0.93 miles (1.50 km)
Ceiling: indefinite ceiling with vertical visibility of 900 feet AGL
Clouds: obscured sky
Weather: SHSN  (snow showers)

METAR text: ENDU 220850Z 00000KT 0600 R10/1300N R28/1400U SHSN VV005 M06/M07 Q1005 TEMPO 0500 +SHSN VV004 RMK WIND 1100FT 32004KT WIND 2200FT 01010KT
Conditions at: ENDU (BARDUFOSS (CIV/M, NO) observed 0850 UTC 22 January 2019
Temperature: -6.0°C (21°F)
Dewpoint: -7.0°C (19°F) [RH = 93%]
Pressure (altimeter): 29.68 inches Hg (1005.0 mb)
Winds: calm
Visibility: 0.37 miles (0.60 km)
Ceiling: indefinite ceiling with vertical visibility of 500 feet AGL
Clouds: obscured sky
Weather: SHSN  (snow showers)

METAR text: ENDU 220820Z 00000KT 0800 R10/P2000N R28/P2000N SHSN VV006 M06/M07 Q1005 TEMPO 0700 SHSN VV005 RMK WIND 1100FT 31004KT WIND 2200FT 34009KT
Conditions at: ENDU (BARDUFOSS (CIV/M, NO) observed 0820 UTC 22 January 2019
Temperature: -6.0°C (21°F)
Dewpoint: -7.0°C (19°F) [RH = 93%]
Pressure (altimeter): 29.68 inches Hg (1005.0 mb)
Winds: calm
Visibility: 0.50 miles (0.80 km)
Ceiling: indefinite ceiling with vertical visibility of 600 feet AGL
Clouds: obscured sky
Weather: SHSN  (snow showers)

METAR text: ENDU 220750Z 22002KT 3500 -SHSN VV014 M04/M05 Q1005 RESHSN TEMPO 2000 SHSN VV008 RMK WIND 1100FT 23004KT WIND 2200FT 30012KT
Conditions at: ENDU (BARDUFOSS (CIV/M, NO) observed 0750 UTC 22 January 2019
Temperature: -4.0°C (25°F)
Dewpoint: -5.0°C (23°F) [RH = 93%]
Pressure (altimeter): 29.68 inches Hg (1005.0 mb)
Winds: from the SW (220 degrees) at 2 MPH (2 knots; 1.0 m/s)
Visibility: 2.17 miles (3.49 km)
Ceiling: indefinite ceiling with vertical visibility of 1400 feet AGL
Clouds: obscured sky
Weather: -SHSN  (light snow showers)

METAR text: ENDU 220720Z VRB02KT 2000 SHSN VV010 M04/M05 Q1005 TEMPO 1000 SHSN VV006 RMK WIND 1100FT 23007KT WIND 2200FT 29016KT
Conditions at: ENDU (BARDUFOSS (CIV/M, NO) observed 0720 UTC 22 January 2019
Temperature: -4.0°C (25°F)
Dewpoint: -5.0°C (23°F) [RH = 93%]
Pressure (altimeter): 29.68 inches Hg (1005.0 mb)
Winds: variable direction winds at 2 MPH (2 knots; 1.0 m/s)
Visibility: 1.24 miles (2.00 km)
Ceiling: indefinite ceiling with vertical visibility of 1000 feet AGL
Clouds: obscured sky
Weather: SHSN  (snow showers)

METAR text: ENDU 220650Z VRB02KT 1200 R10/P2000N R28/P2000N SHSN VV007 M04/M05 Q1005 TEMPO 1000 SHSN VV006 RMK WIND 1100FT 25006KT WIND 2200FT 27018KT
Conditions at: ENDU (BARDUFOSS (CIV/M, NO) observed 0650 UTC 22 January 2019
Temperature: -4.0°C (25°F)
Dewpoint: -5.0°C (23°F) [RH = 93%]
Pressure (altimeter): 29.68 inches Hg (1005.0 mb)
Winds: variable direction winds at 2 MPH (2 knots; 1.0 m/s)
Visibility: 0.75 miles (1.21 km)
Ceiling: indefinite ceiling with vertical visibility of 700 feet AGL
Clouds: obscured sky
Weather: SHSN  (snow showers)

METAR text: ENDU 220620Z 00000KT 1000 R10/P2000N R28/P2000N SHSN VV006 M10/M11 Q1005 TEMPO 0700 SHSN VV005 RMK WIND 1100FT 29006KT WIND 2200FT 29019KT
Conditions at: ENDU (BARDUFOSS (CIV/M, NO) observed 0620 UTC 22 January 2019
Temperature: -10.0°C (14°F)
Dewpoint: -11.0°C (12°F) [RH = 92%]
Pressure (altimeter): 29.68 inches Hg (1005.0 mb)
Winds: calm
Visibility: 0.62 miles (1.00 km)
Ceiling: indefinite ceiling with vertical visibility of 600 feet AGL
Clouds: obscured sky
Weather: SHSN  (snow showers)

METAR text: ENDU 220550Z 00000KT 1500 0800NE R10/P2000N R28/P2000N -SHSN VV012 M10/M11 Q1005 TEMPO 1000 SHSN VV006 RMK WIND 1100FT 29010KT WIND 2200FT 28025KT
Conditions at: ENDU (BARDUFOSS (CIV/M, NO) observed 0550 UTC 22 January 2019
Temperature: -10.0°C (14°F)
Dewpoint: -11.0°C (12°F) [RH = 92%]
Pressure (altimeter): 29.68 inches Hg (1005.0 mb)
Winds: calm
Visibility: 0.93 miles (1.50 km)
Ceiling: indefinite ceiling with vertical visibility of 1200 feet AGL
Clouds: obscured sky
Weather: -SHSN  (light snow showers)

METAR text: ENDU 220520Z 00000KT 9999 -SHSN FEW020 BKN035 M12/M13 Q1005 RMK WIND 1100FT 24012KT WIND 2200FT 26024KT
Conditions at: ENDU (BARDUFOSS (CIV/M, NO) observed 0520 UTC 22 January 2019
Temperature: -12.0°C (10°F)
Dewpoint: -13.0°C ( 9°F) [RH = 92%]
Pressure (altimeter): 29.68 inches Hg (1005.0 mb)
Winds: calm
Visibility: 6 or more miles (10+ km)
Ceiling: 3500 feet AGL
Clouds: few clouds at 2000 feet AGL
broken clouds at 3500 feet AGL
Weather: -SHSN  (light snow showers)

METAR text: ENDU 220450Z 00000KT 9999 BKN035 M13/M15 Q1005 RMK WIND 1100FT 22010KT WIND 2200FT 26024KT
Conditions at: ENDU (BARDUFOSS (CIV/M, NO) observed 0450 UTC 22 January 2019
Temperature: -13.0°C ( 9°F)
Dewpoint: -15.0°C ( 5°F) [RH = 85%]
Pressure (altimeter): 29.68 inches Hg (1005.0 mb)
Winds: calm
Visibility: 6 or more miles (10+ km)
Ceiling: 3500 feet AGL
Clouds: broken clouds at 3500 feet AGL
Weather: no significant weather observed at this time

Forecast for: ENDU (BARDUFOSS (CIV/M, NO)
Text: TAF ENDU 2312/2412 VRB05KT 9999 FEW040
Forecast period: 1200 UTC 23 January 2019 to 1200 UTC 24 January 2019
Forecast type: FROM: standard forecast or significant change
Winds: variable direction winds at 6 MPH (5 knots; 2.6 m/s)
Visibility: 6 or more miles 10+ km)
Ceiling: at least 12,000 feet AGL
Clouds: few clouds at 4000 feet AGL
Weather: no significant weather forecast for this period